createdAt,value
2023-05-25T00:01:01.948Z,79.34
2023-05-25T00:01:52.579Z,79.58
2023-05-25T00:02:51.770Z,79.66
2023-05-25T00:03:51.700Z,80.83
2023-05-25T00:04:51.628Z,77.66
2023-05-25T00:05:51.649Z,77.78
2023-05-25T00:06:51.670Z,76.71
2023-05-25T00:07:51.692Z,79.97
2023-05-25T00:08:51.731Z,79.02
2023-05-25T00:09:51.783Z,78.85
2023-05-25T00:10:51.815Z,79.10
2023-05-25T00:11:51.830Z,79.49
2023-05-25T00:12:51.869Z,79.10
2023-05-25T00:13:51.921Z,79.70
2023-05-25T00:14:51.887Z,76.79
2023-05-25T00:15:51.929Z,76.91
2023-05-25T00:16:51.994Z,78.61
2023-05-25T00:17:52.016Z,80.67
2023-05-25T00:18:52.007Z,77.50
2023-05-25T00:19:52.115Z,75.71
2023-05-25T00:20:52.166Z,79.75
2023-05-25T00:21:52.230Z,75.53
2023-05-25T00:22:52.250Z,79.43
2023-05-25T00:23:52.369Z,79.47
2023-05-25T00:24:52.409Z,76.04
2023-05-25T00:25:52.454Z,76.21
2023-05-25T00:26:52.462Z,77.38
2023-05-25T00:27:52.479Z,77.52
2023-05-25T00:28:52.504Z,78.95
2023-05-25T00:29:52.504Z,79.57
2023-05-25T00:30:52.541Z,80.27
2023-05-25T00:31:52.581Z,78.52
2023-05-25T00:32:52.615Z,75.13
2023-05-25T00:33:52.680Z,78.33
2023-05-25T00:34:52.741Z,78.26
2023-05-25T00:35:52.829Z,74.83
2023-05-25T00:36:52.931Z,76.25
2023-05-25T00:37:53.031Z,76.22
2023-05-25T00:38:53.110Z,74.69
2023-05-25T00:39:53.193Z,77.48
2023-05-25T00:40:53.280Z,76.30
2023-05-25T00:41:53.364Z,77.01
2023-05-25T00:42:53.457Z,81.64
2023-05-25T00:43:53.571Z,75.93
2023-05-25T00:44:53.639Z,77.74
2023-05-25T00:45:53.687Z,77.95
2023-05-25T00:46:53.774Z,78.13
2023-05-25T00:47:53.789Z,78.38
2023-05-25T00:48:53.754Z,74.97
2023-05-25T00:49:53.798Z,77.76
2023-05-25T00:50:53.863Z,75.57
2023-05-25T00:51:53.840Z,74.92
2023-05-25T00:52:53.856Z,76.63
2023-05-25T00:53:53.978Z,74.65
2023-05-25T00:54:54.011Z,73.75
2023-05-25T00:55:54.108Z,81.62
2023-05-25T00:56:54.177Z,73.29
2023-05-25T00:57:54.175Z,73.55
2023-05-25T00:58:54.212Z,73.50
2023-05-25T00:59:54.258Z,73.48
2023-05-25T01:00:54.276Z,74.03
2023-05-25T01:01:54.409Z,75.39
2023-05-25T01:02:54.511Z,75.87
2023-05-25T01:03:54.484Z,73.74
2023-05-25T01:04:54.353Z,74.04
2023-05-25T01:05:54.388Z,73.94
2023-05-25T01:06:54.404Z,73.01
2023-05-25T01:07:54.429Z,72.92
2023-05-25T01:08:54.509Z,75.14
2023-05-25T01:09:54.610Z,73.73
2023-05-25T01:10:54.704Z,73.06
2023-05-25T01:11:54.784Z,75.94
2023-05-25T01:12:54.883Z,71.92
2023-05-25T01:13:54.974Z,74.78
2023-05-25T01:14:55.086Z,73.70
2023-05-25T01:15:55.187Z,75.01
2023-05-25T01:16:55.249Z,73.81
2023-05-25T01:17:55.373Z,74.00
2023-05-25T01:18:55.436Z,72.13
2023-05-25T01:20:55.727Z,77.64
2023-05-25T01:21:55.578Z,74.25
2023-05-25T01:22:55.601Z,69.91
2023-05-25T01:23:55.654Z,71.26
2023-05-25T01:24:55.652Z,73.05
2023-05-25T01:25:55.688Z,71.54
2023-05-25T01:26:55.716Z,73.76
2023-05-25T01:27:55.758Z,74.07
2023-05-25T01:28:55.795Z,71.67
2023-05-25T01:29:55.817Z,73.77
2023-05-25T01:30:55.846Z,71.64
2023-05-25T01:31:55.981Z,72.61
2023-05-25T01:32:56.057Z,74.65
2023-05-25T01:33:56.074Z,70.88
2023-05-25T01:34:56.009Z,73.36
2023-05-25T01:35:56.043Z,72.11
2023-05-25T01:36:56.040Z,72.26
2023-05-25T01:37:56.082Z,70.85
2023-05-25T01:38:56.096Z,72.53
2023-05-25T01:39:56.112Z,69.77
2023-05-25T01:40:56.200Z,69.59
2023-05-25T01:41:56.346Z,68.27
2023-05-25T01:42:56.327Z,73.31
2023-05-25T01:43:56.324Z,67.92
2023-05-25T01:44:56.323Z,67.34
2023-05-25T01:45:56.800Z,71.08
2023-05-25T01:46:56.378Z,71.26
2023-05-25T01:47:56.458Z,71.71
2023-05-25T01:48:56.418Z,71.78
2023-05-25T01:49:56.507Z,71.93
2023-05-25T01:50:56.606Z,76.44
2023-05-25T01:51:56.675Z,72.72
2023-05-25T01:52:56.716Z,67.71
2023-05-25T01:53:56.803Z,69.65
2023-05-25T01:54:56.859Z,71.35
2023-05-25T01:55:56.932Z,70.54
2023-05-25T01:56:57.030Z,68.72
2023-05-25T01:57:57.116Z,71.85
2023-05-25T01:58:57.200Z,69.64
2023-05-25T01:59:57.253Z,70.25
2023-05-25T02:00:57.329Z,71.52
2023-05-25T02:01:57.400Z,71.89
2023-05-25T02:02:57.464Z,67.43
2023-05-25T02:03:57.541Z,70.84
2023-05-25T02:04:57.641Z,71.02
2023-05-25T02:05:57.700Z,67.86
2023-05-25T02:06:57.798Z,69.33
2023-05-25T02:07:57.870Z,68.18
2023-05-25T02:08:57.978Z,70.88
2023-05-25T02:09:58.044Z,67.28
2023-05-25T02:10:58.128Z,71.70
2023-05-25T02:11:58.206Z,69.17
2023-05-25T02:12:58.285Z,64.75
2023-05-25T02:13:58.373Z,68.74
2023-05-25T02:14:58.467Z,67.24
2023-05-25T02:15:58.511Z,67.38
2023-05-25T02:16:58.493Z,67.85
2023-05-25T02:17:58.592Z,67.91
2023-05-25T02:18:58.565Z,67.39
2023-05-25T02:19:58.673Z,67.88
2023-05-25T02:20:58.745Z,67.74
2023-05-25T02:21:58.701Z,67.90
2023-05-25T02:22:58.685Z,69.93
2023-05-25T02:23:58.711Z,68.91
2023-05-25T02:24:58.722Z,65.03
2023-05-25T02:25:58.759Z,67.55
2023-05-25T02:26:58.786Z,66.97
2023-05-25T02:27:58.839Z,65.88
2023-05-25T02:28:58.935Z,66.77
2023-05-25T02:29:59.006Z,66.04
2023-05-25T02:30:59.178Z,64.86
2023-05-25T02:31:59.193Z,63.96
2023-05-25T02:32:59.343Z,65.26
2023-05-25T02:33:59.362Z,64.98
2023-05-25T02:34:59.458Z,64.44
2023-05-25T02:35:59.578Z,66.23
2023-05-25T02:36:59.659Z,62.83
2023-05-25T02:37:59.732Z,63.51
2023-05-25T02:38:59.821Z,64.40
2023-05-25T02:39:59.871Z,62.72
2023-05-25T02:40:59.908Z,65.24
2023-05-25T02:42:00.002Z,64.25
2023-05-25T02:43:00.039Z,61.71
2023-05-25T02:44:00.137Z,65.23
2023-05-25T02:45:00.225Z,65.20
2023-05-25T02:46:00.295Z,63.05
2023-05-25T02:47:00.442Z,63.42
2023-05-25T02:48:00.515Z,64.61
2023-05-25T02:49:00.634Z,61.53
2023-05-25T02:50:00.648Z,64.48
2023-05-25T02:51:00.663Z,62.82
2023-05-25T02:52:00.834Z,59.97
2023-05-25T02:53:00.901Z,63.46
2023-05-25T02:54:00.907Z,63.51
2023-05-25T02:55:00.947Z,63.75
2023-05-25T02:56:00.983Z,63.93
2023-05-25T02:57:00.949Z,63.86
2023-05-25T02:58:00.991Z,64.71
2023-05-25T02:59:00.999Z,64.33
2023-05-25T03:00:01.033Z,60.41
2023-05-25T03:01:01.148Z,62.63
2023-05-25T03:02:01.180Z,61.76
2023-05-25T03:03:01.295Z,61.74
2023-05-25T03:04:01.519Z,60.49
2023-05-25T03:05:04.196Z,63.44
2023-05-25T03:06:01.439Z,63.53
2023-05-25T03:07:01.490Z,63.21
2023-05-25T03:08:01.503Z,61.59
2023-05-25T03:09:01.517Z,59.01
2023-05-25T03:10:01.566Z,63.84
2023-05-25T03:11:01.582Z,60.13
2023-05-25T03:12:01.637Z,62.31
2023-05-25T03:13:01.658Z,59.82
2023-05-25T03:14:01.690Z,60.50
2023-05-25T03:15:01.743Z,62.56
2023-05-25T03:16:01.871Z,63.25
2023-05-25T03:17:02.047Z,58.69
2023-05-25T03:18:02.087Z,58.10
2023-05-25T03:19:02.149Z,59.77
2023-05-25T03:20:02.308Z,60.31
2023-05-25T03:21:02.330Z,60.63
2023-05-25T03:22:02.445Z,60.70
2023-05-25T03:23:02.525Z,59.73
2023-05-25T03:24:02.754Z,60.56
2023-05-25T03:25:02.722Z,58.37
2023-05-25T03:26:02.812Z,58.17
2023-05-25T03:27:02.908Z,59.09
2023-05-25T03:28:03.012Z,60.19
2023-05-25T03:29:03.109Z,59.94
2023-05-25T03:30:03.222Z,59.13
2023-05-25T03:31:03.331Z,59.76
2023-05-25T03:32:03.470Z,61.23
2023-05-25T03:33:03.531Z,57.89
2023-05-25T03:34:03.639Z,60.18
2023-05-25T03:35:03.726Z,60.01
2023-05-25T03:36:03.804Z,57.27
2023-05-25T03:37:03.876Z,58.60
2023-05-25T03:38:03.974Z,59.15
2023-05-25T03:39:04.067Z,61.37
2023-05-25T03:40:04.168Z,56.39
2023-05-25T03:41:04.270Z,59.38
2023-05-25T03:42:04.366Z,61.42
2023-05-25T03:43:04.454Z,59.79
2023-05-25T03:44:04.564Z,59.40
2023-05-25T03:45:04.654Z,56.83
2023-05-25T03:46:04.725Z,57.05
2023-05-25T03:47:04.724Z,57.86
2023-05-25T03:48:04.895Z,58.21
2023-05-25T03:49:04.793Z,58.28
2023-05-25T03:50:04.828Z,58.36
2023-05-25T03:51:04.865Z,62.53
2023-05-25T03:52:04.891Z,61.85
2023-05-25T03:53:04.920Z,58.92
2023-05-25T03:54:05.038Z,59.96
2023-05-25T03:55:05.116Z,59.38
2023-05-25T03:56:05.223Z,63.22
2023-05-25T03:57:05.235Z,63.28
2023-05-25T03:58:05.296Z,60.34
2023-05-25T03:59:05.303Z,59.94
2023-05-25T04:00:05.382Z,63.28
2023-05-25T04:01:05.669Z,59.88
2023-05-25T04:02:05.408Z,62.78
2023-05-25T04:03:05.477Z,61.01
2023-05-25T04:04:05.567Z,60.81
2023-05-25T04:05:05.501Z,60.09
2023-05-25T04:06:05.552Z,58.48
2023-05-25T04:07:05.624Z,58.25
2023-05-25T04:08:05.704Z,62.13
2023-05-25T04:09:05.792Z,56.95
2023-05-25T04:10:05.889Z,58.54
2023-05-25T04:11:05.979Z,54.21
2023-05-25T04:12:06.147Z,57.39
2023-05-25T04:13:06.186Z,57.75
2023-05-25T04:14:06.292Z,58.34
2023-05-25T04:15:06.380Z,54.78
2023-05-25T04:16:06.601Z,56.38
2023-05-25T04:17:06.587Z,55.26
2023-05-25T04:18:06.738Z,54.91
2023-05-25T04:19:06.770Z,55.17
2023-05-25T04:20:06.905Z,55.04
2023-05-25T04:21:06.965Z,54.96
2023-05-25T04:22:07.051Z,53.98
2023-05-25T04:23:07.137Z,54.06
2023-05-25T04:24:07.203Z,51.93
2023-05-25T04:25:07.310Z,54.89
2023-05-25T04:26:07.359Z,54.59
2023-05-25T04:27:07.450Z,56.13
2023-05-25T04:28:07.528Z,52.46
2023-05-25T04:29:07.633Z,52.80
2023-05-25T04:30:07.739Z,52.39
2023-05-25T04:31:07.807Z,49.31
2023-05-25T04:32:07.801Z,49.59
2023-05-25T04:33:07.841Z,49.37
2023-05-25T04:34:07.908Z,47.47
2023-05-25T04:35:07.850Z,48.39
2023-05-25T04:36:07.882Z,44.65
2023-05-25T04:37:07.941Z,49.23
2023-05-25T04:38:07.931Z,46.09
2023-05-25T04:39:07.961Z,43.54
2023-05-25T04:40:07.982Z,40.06
2023-05-25T04:41:08.037Z,42.27
2023-05-25T04:42:08.144Z,43.46
2023-05-25T04:43:08.250Z,41.55
2023-05-25T04:44:10.162Z,39.96
2023-05-25T04:45:08.424Z,40.19
2023-05-25T04:46:08.579Z,39.12
2023-05-25T04:47:08.644Z,38.32
2023-05-25T04:48:08.761Z,38.56
2023-05-25T04:49:08.826Z,41.71
2023-05-25T04:50:08.930Z,40.03
2023-05-25T04:51:09.029Z,34.99
2023-05-25T04:52:09.129Z,36.01
2023-05-25T04:53:09.225Z,36.41
2023-05-25T04:54:09.320Z,36.22
2023-05-25T04:55:09.416Z,34.24
2023-05-25T04:56:09.508Z,33.07
2023-05-25T04:57:09.613Z,31.70
2023-05-25T04:58:09.703Z,29.96
2023-05-25T04:59:09.792Z,30.01
2023-05-25T05:00:09.964Z,26.83
2023-05-25T05:01:10.024Z,26.91
2023-05-25T05:02:10.099Z,25.84
2023-05-25T05:03:10.268Z,25.00
2023-05-25T05:04:10.303Z,25.00
2023-05-25T05:05:10.380Z,27.49
2023-05-25T05:06:10.516Z,26.50
2023-05-25T05:07:10.546Z,25.00
2023-05-25T05:08:10.644Z,28.98
2023-05-25T05:09:10.729Z,29.44
2023-05-25T05:10:10.818Z,29.25
2023-05-25T05:11:10.890Z,28.75
2023-05-25T05:12:12.191Z,30.30
2023-05-25T05:13:11.050Z,27.45
2023-05-25T05:14:11.150Z,32.08
2023-05-25T05:15:11.243Z,33.18
2023-05-25T05:16:11.355Z,33.30
2023-05-25T05:17:11.294Z,33.61
2023-05-25T05:18:11.393Z,34.60
2023-05-25T05:19:11.353Z,34.25
2023-05-25T05:20:11.472Z,37.37
2023-05-25T05:21:11.419Z,34.31
2023-05-25T05:22:11.421Z,36.56
2023-05-25T05:23:11.450Z,36.71
2023-05-25T05:24:11.484Z,37.05
2023-05-25T05:25:11.497Z,36.72
2023-05-25T05:26:11.586Z,36.91
2023-05-25T05:27:11.554Z,36.71
2023-05-25T05:28:11.618Z,36.86
2023-05-25T05:29:11.661Z,36.77
2023-05-25T05:30:11.641Z,37.45
2023-05-25T05:31:11.741Z,34.13
2023-05-25T05:32:11.694Z,36.07
2023-05-25T05:33:11.796Z,39.03
2023-05-25T05:34:11.759Z,37.86
2023-05-25T05:35:11.802Z,44.89
2023-05-25T05:36:11.823Z,60.66
2023-05-25T05:37:11.842Z,69.91
2023-05-25T05:38:11.930Z,72.09
2023-05-25T05:39:12.044Z,83.68
2023-05-25T05:40:12.037Z,84.35
2023-05-25T05:41:12.074Z,89.74
2023-05-25T05:42:12.095Z,101.98
2023-05-25T05:43:12.119Z,126.06
2023-05-25T05:44:12.148Z,162.44
2023-05-25T05:45:12.192Z,181.88
2023-05-25T05:46:12.217Z,189.76
2023-05-25T05:47:12.248Z,201.57
2023-05-25T05:48:12.256Z,214.54
2023-05-25T05:49:12.275Z,221.63
2023-05-25T05:50:12.312Z,240.11
2023-05-25T05:51:12.313Z,248.25
2023-05-25T05:52:12.356Z,248.87
2023-05-25T05:53:12.373Z,252.66
2023-05-25T05:54:12.389Z,259.82
2023-05-25T05:55:12.436Z,275.50
2023-05-25T05:56:12.552Z,300.56
2023-05-25T05:57:12.448Z,248.33
2023-05-25T05:58:12.481Z,248.77
2023-05-25T05:59:12.890Z,250.00
2023-05-25T06:00:12.487Z,250.00
2023-05-25T06:01:12.489Z,249.79
2023-05-25T06:02:12.539Z,248.45
2023-05-25T06:03:12.567Z,250.00
2023-05-25T06:04:12.532Z,250.35
2023-05-25T06:05:12.577Z,251.96
2023-05-25T06:06:12.588Z,256.13
2023-05-25T06:07:12.560Z,265.16
2023-05-25T06:08:12.569Z,275.37
2023-05-25T06:09:12.625Z,258.91
2023-05-25T06:10:12.613Z,250.00
2023-05-25T06:11:12.612Z,249.46
2023-05-25T06:12:12.636Z,249.47
2023-05-25T06:13:12.630Z,250.00
2023-05-25T06:14:12.650Z,250.00
2023-05-25T06:15:12.676Z,249.84
2023-05-25T06:16:12.708Z,248.34
2023-05-25T06:17:12.686Z,248.72
2023-05-25T06:18:12.800Z,249.41
2023-05-25T06:19:12.721Z,248.20
2023-05-25T06:20:12.775Z,249.74
2023-05-25T06:21:13.226Z,248.80
2023-05-25T06:22:12.786Z,250.28
2023-05-25T06:23:12.785Z,249.64
2023-05-25T06:24:12.796Z,249.96
2023-05-25T06:25:12.795Z,249.07
2023-05-25T06:26:12.812Z,249.11
2023-05-25T06:27:12.831Z,249.33
2023-05-25T06:28:12.837Z,249.38
2023-05-25T06:29:14.239Z,249.97
2023-05-25T06:30:12.884Z,251.34
2023-05-25T06:31:12.878Z,253.53
2023-05-25T06:32:13.034Z,258.48
2023-05-25T06:33:12.876Z,249.80
2023-05-25T06:34:12.875Z,248.87
2023-05-25T06:35:13.460Z,248.77
2023-05-25T06:36:12.903Z,246.87
2023-05-25T06:37:12.889Z,247.06
2023-05-25T06:38:12.910Z,247.51
2023-05-25T06:39:12.936Z,248.56
2023-05-25T06:40:12.933Z,247.14
2023-05-25T06:41:13.015Z,248.22
2023-05-25T06:42:12.929Z,247.05
2023-05-25T06:43:12.951Z,247.63
2023-05-25T06:44:12.941Z,220.46
2023-05-25T06:45:12.966Z,140.91
2023-05-25T06:46:12.995Z,74.65
2023-05-25T06:47:12.952Z,56.12
2023-05-25T06:48:13.005Z,44.11
2023-05-25T06:49:12.980Z,41.20
2023-05-25T06:50:13.017Z,39.07
2023-05-25T06:51:13.023Z,52.23
2023-05-25T06:52:13.008Z,56.78
2023-05-25T06:53:13.027Z,64.01
2023-05-25T06:54:13.019Z,64.37
2023-05-25T06:55:13.053Z,66.82
2023-05-25T06:56:13.039Z,73.10
2023-05-25T06:57:13.076Z,85.24
2023-05-25T06:58:13.065Z,103.88
2023-05-25T06:59:13.089Z,111.00
2023-05-25T07:00:13.054Z,119.73
2023-05-25T07:01:13.106Z,124.06
2023-05-25T07:02:13.124Z,126.05
2023-05-25T07:03:13.087Z,130.62
2023-05-25T07:04:13.093Z,137.33
2023-05-25T07:05:13.218Z,143.59
2023-05-25T07:06:13.112Z,153.03
2023-05-25T07:07:13.132Z,175.93
2023-05-25T07:08:13.126Z,184.09
2023-05-25T07:09:13.155Z,179.12
2023-05-25T07:10:13.146Z,180.73
2023-05-25T07:11:13.171Z,183.65
2023-05-25T07:12:13.151Z,185.06
2023-05-25T07:13:13.169Z,187.85
2023-05-25T07:14:13.318Z,184.84
2023-05-25T07:15:13.239Z,172.75
2023-05-25T07:16:13.187Z,203.09
2023-05-25T07:17:13.197Z,281.95
2023-05-25T07:18:13.187Z,237.25
2023-05-25T07:19:13.201Z,218.38
2023-05-25T07:20:13.466Z,197.44
2023-05-25T07:21:13.200Z,186.44
2023-05-25T07:22:13.211Z,176.50
2023-05-25T07:23:13.248Z,167.13
2023-05-25T07:24:13.224Z,161.57
2023-05-25T07:25:13.245Z,161.45
2023-05-25T07:26:13.229Z,159.70
2023-05-25T07:27:13.236Z,157.85
2023-05-25T07:28:13.280Z,146.21
2023-05-25T07:29:13.278Z,145.08
2023-05-25T07:30:13.258Z,128.86
2023-05-25T07:31:13.298Z,122.00
2023-05-25T07:32:13.378Z,111.21
2023-05-25T07:33:13.255Z,97.40
2023-05-25T07:34:13.301Z,82.48
2023-05-25T07:35:13.299Z,73.56
2023-05-25T07:36:13.288Z,67.23
2023-05-25T07:37:13.309Z,73.62
2023-05-25T07:38:13.320Z,81.02
2023-05-25T07:39:13.335Z,88.45
2023-05-25T07:40:13.327Z,95.37
2023-05-25T07:41:13.358Z,90.31
2023-05-25T07:42:13.473Z,87.02
2023-05-25T07:43:13.397Z,91.98
2023-05-25T07:44:13.376Z,97.70
2023-05-25T07:45:13.380Z,97.75
2023-05-25T07:46:13.378Z,91.72
2023-05-25T07:47:13.415Z,87.43
2023-05-25T07:48:13.427Z,81.16
2023-05-25T07:49:13.510Z,93.55
2023-05-25T07:50:13.447Z,94.98
2023-05-25T07:51:13.456Z,81.05
2023-05-25T07:52:13.456Z,70.53
2023-05-25T07:53:13.461Z,58.26
2023-05-25T07:54:13.458Z,57.40
2023-05-25T07:55:13.555Z,51.40
2023-05-25T07:56:13.463Z,44.08
2023-05-25T07:57:13.488Z,37.48
2023-05-25T07:58:13.516Z,36.06
2023-05-25T07:59:13.501Z,31.77
2023-05-25T08:00:13.506Z,26.09
2023-05-25T08:01:13.516Z,25.00
2023-05-25T08:02:13.532Z,25.08
2023-05-25T08:03:13.660Z,25.09
2023-05-25T08:04:13.600Z,25.28
2023-05-25T08:05:13.962Z,25.67
2023-05-25T08:06:13.809Z,21.35
2023-05-25T08:07:13.548Z,24.15
2023-05-25T08:08:13.558Z,25.00
2023-05-25T08:09:13.586Z,34.20
2023-05-25T08:10:13.558Z,30.04
2023-05-25T08:11:13.573Z,25.22
2023-05-25T08:12:34.194Z,30.57
2023-05-25T08:13:14.621Z,22.99
2023-05-25T08:14:13.609Z,16.08
2023-05-25T08:15:13.621Z,14.81
2023-05-25T08:16:13.620Z,13.31
2023-05-25T08:17:13.718Z,14.74
2023-05-25T08:18:13.707Z,22.14
2023-05-25T08:19:13.765Z,27.79
2023-05-25T08:20:13.716Z,30.53
2023-05-25T08:21:13.703Z,27.46
2023-05-25T08:22:13.684Z,25.84
2023-05-25T08:23:13.824Z,19.26
2023-05-25T08:24:13.695Z,15.56
2023-05-25T08:25:13.717Z,23.32
2023-05-25T08:26:31.153Z,35.04
2023-05-25T08:27:14.737Z,35.64
2023-05-25T08:28:13.748Z,37.38
2023-05-25T08:29:13.761Z,29.16
2023-05-25T08:30:13.759Z,18.71
2023-05-25T08:31:13.807Z,11.32
2023-05-25T08:32:13.812Z,22.75
2023-05-25T08:33:13.845Z,24.49
2023-05-25T08:34:13.838Z,24.96
2023-05-25T08:35:13.869Z,25.29
2023-05-25T08:36:13.843Z,25.35
2023-05-25T08:37:13.870Z,25.88
2023-05-25T08:38:13.878Z,25.59
2023-05-25T08:39:13.921Z,25.54
2023-05-25T08:40:13.916Z,25.00
2023-05-25T08:41:13.953Z,25.66
2023-05-25T08:42:13.960Z,25.16
2023-05-25T08:43:13.990Z,24.51
2023-05-25T08:44:13.994Z,25.00
2023-05-25T08:45:26.344Z,25.00
2023-05-25T08:46:14.992Z,17.27
2023-05-25T08:47:14.013Z,11.51
2023-05-25T08:48:16.658Z,2.56
2023-05-25T08:49:15.123Z,0.43
2023-05-25T08:50:14.079Z,0.00
2023-05-25T08:51:14.071Z,0.00
2023-05-25T08:52:14.085Z,0.00
2023-05-25T08:53:14.106Z,0.00
2023-05-25T08:54:14.128Z,0.00
2023-05-25T08:55:14.151Z,0.00
2023-05-25T08:56:14.157Z,0.00
2023-05-25T08:57:14.176Z,9.31
2023-05-25T08:58:14.179Z,24.62
2023-05-25T08:59:14.206Z,29.02
2023-05-25T09:00:14.249Z,36.31
2023-05-25T09:01:14.224Z,36.21
2023-05-25T09:02:14.357Z,36.43
2023-05-25T09:03:14.370Z,37.99
2023-05-25T09:04:14.448Z,41.26
2023-05-25T09:05:14.295Z,44.88
2023-05-25T09:06:14.323Z,46.88
2023-05-25T09:07:14.335Z,45.40
2023-05-25T09:08:14.335Z,36.62
2023-05-25T09:09:14.356Z,42.19
2023-05-25T09:10:14.414Z,39.67
2023-05-25T09:11:16.973Z,45.00
2023-05-25T09:12:14.396Z,43.67
2023-05-25T09:13:22.017Z,35.88
2023-05-25T09:14:15.432Z,42.60
2023-05-25T09:15:14.446Z,34.87
2023-05-25T09:16:14.512Z,38.55
2023-05-25T09:17:14.449Z,42.47
2023-05-25T09:18:14.482Z,34.76
2023-05-25T09:19:17.490Z,37.93
2023-05-25T09:20:14.565Z,33.67
2023-05-25T09:21:14.509Z,34.78
2023-05-25T09:22:16.382Z,35.19
2023-05-25T09:23:14.553Z,35.35
2023-05-25T09:24:14.538Z,31.73
2023-05-25T09:25:14.572Z,26.96
2023-05-25T09:26:14.581Z,24.60
2023-05-25T09:27:14.640Z,23.71
2023-05-25T09:28:26.248Z,27.89
2023-05-25T09:29:15.637Z,27.97
2023-05-25T09:30:14.652Z,26.41
2023-05-25T09:31:14.671Z,22.60
2023-05-25T09:32:14.712Z,20.38
2023-05-25T09:33:14.762Z,18.47
2023-05-25T09:34:14.731Z,25.00
2023-05-25T09:35:14.771Z,25.62
2023-05-25T09:36:14.778Z,25.28
2023-05-25T09:37:15.077Z,30.96
2023-05-25T09:38:14.968Z,25.73
2023-05-25T09:39:14.946Z,29.87
2023-05-25T09:40:16.728Z,32.61
2023-05-25T09:41:14.908Z,40.48
2023-05-25T09:42:14.861Z,48.98
2023-05-25T09:43:25.005Z,54.46
2023-05-25T09:44:15.880Z,54.81
2023-05-25T09:45:14.879Z,56.68
2023-05-25T09:46:14.933Z,60.94
2023-05-25T09:47:14.913Z,69.42
2023-05-25T09:48:14.958Z,82.34
2023-05-25T09:49:14.972Z,88.50
2023-05-25T09:50:15.010Z,92.91
2023-05-25T09:51:15.002Z,98.10
2023-05-25T09:52:15.013Z,102.12
2023-05-25T09:53:15.001Z,104.73
2023-05-25T09:54:15.036Z,107.42
2023-05-25T09:55:15.034Z,107.79
2023-05-25T09:56:15.041Z,110.89
2023-05-25T09:57:15.093Z,113.88
2023-05-25T09:58:15.067Z,113.99
2023-05-25T09:59:15.102Z,114.63
2023-05-25T10:00:15.108Z,116.19
2023-05-25T10:01:15.149Z,119.58
2023-05-25T10:02:15.170Z,125.38
2023-05-25T10:03:15.512Z,125.86
2023-05-25T10:04:15.175Z,128.94
2023-05-25T10:05:15.205Z,131.48
2023-05-25T10:06:15.191Z,133.91
2023-05-25T10:07:15.188Z,137.00
2023-05-25T10:08:15.194Z,139.62
2023-05-25T10:09:15.278Z,141.82
2023-05-25T10:10:15.339Z,142.48
2023-05-25T10:11:15.264Z,144.29
2023-05-25T10:12:15.254Z,145.70
2023-05-25T10:13:15.242Z,145.85
2023-05-25T10:14:15.271Z,146.38
2023-05-25T10:15:15.305Z,147.80
2023-05-25T10:16:15.343Z,151.26
2023-05-25T10:17:15.305Z,154.36
2023-05-25T10:18:15.303Z,156.66
2023-05-25T10:19:15.345Z,156.37
2023-05-25T10:20:15.445Z,156.43
2023-05-25T10:21:15.349Z,156.68
2023-05-25T10:22:15.336Z,157.18
2023-05-25T10:23:15.383Z,158.38
2023-05-25T10:24:15.369Z,160.09
2023-05-25T10:25:15.396Z,159.46
2023-05-25T10:26:15.392Z,159.57
2023-05-25T10:27:26.241Z,160.64
2023-05-25T10:28:16.439Z,160.67
2023-05-25T10:29:15.403Z,160.83
2023-05-25T10:30:15.466Z,161.23
2023-05-25T10:31:15.633Z,166.85
2023-05-25T10:32:15.443Z,177.29
2023-05-25T10:33:15.458Z,180.32
2023-05-25T10:34:15.485Z,181.90
2023-05-25T10:35:15.493Z,188.63
2023-05-25T10:36:15.693Z,190.84
2023-05-25T10:37:15.503Z,192.03
2023-05-25T10:38:15.502Z,193.65
2023-05-25T10:39:15.538Z,195.10
2023-05-25T10:40:15.571Z,196.47
2023-05-25T10:41:15.540Z,197.68
2023-05-25T10:42:15.544Z,198.62
2023-05-25T10:43:15.562Z,199.14
2023-05-25T10:44:15.568Z,199.18
2023-05-25T10:45:15.562Z,199.35
2023-05-25T10:46:15.588Z,200.85
2023-05-25T10:47:15.714Z,199.37
2023-05-25T10:48:15.623Z,200.22
2023-05-25T10:49:15.616Z,201.52
2023-05-25T10:50:15.629Z,204.15
2023-05-25T10:51:15.645Z,209.02
2023-05-25T10:52:15.640Z,206.96
2023-05-25T10:53:15.635Z,209.38
2023-05-25T10:54:15.650Z,208.31
2023-05-25T10:55:15.655Z,207.67
2023-05-25T10:56:15.700Z,208.60
2023-05-25T10:57:15.687Z,207.61
2023-05-25T10:58:15.728Z,208.14
2023-05-25T10:59:15.716Z,207.32
2023-05-25T11:00:15.780Z,207.65
2023-05-25T11:01:15.789Z,207.68
2023-05-25T11:02:15.838Z,207.46
2023-05-25T11:03:15.793Z,206.12
2023-05-25T11:04:15.835Z,204.95
2023-05-25T11:05:15.761Z,204.53
2023-05-25T11:06:15.890Z,207.48
2023-05-25T11:07:15.797Z,207.40
2023-05-25T11:08:15.845Z,205.70
2023-05-25T11:09:15.845Z,205.63
2023-05-25T11:10:15.844Z,206.62
2023-05-25T11:11:15.870Z,203.97
2023-05-25T11:12:15.849Z,202.67
2023-05-25T11:13:15.873Z,201.71
2023-05-25T11:14:15.929Z,201.40
2023-05-25T11:15:15.971Z,201.05
2023-05-25T11:16:15.958Z,200.40
2023-05-25T11:17:16.115Z,200.01
2023-05-25T11:18:15.912Z,200.49
2023-05-25T11:19:15.930Z,198.40
2023-05-25T11:20:15.991Z,197.30
2023-05-25T11:21:15.932Z,196.85
2023-05-25T11:22:15.971Z,193.81
2023-05-25T11:23:15.970Z,192.97
2023-05-25T11:24:16.020Z,193.55
2023-05-25T11:25:15.973Z,191.75
2023-05-25T11:26:16.115Z,190.98
2023-05-25T11:27:15.991Z,188.82
2023-05-25T11:28:16.031Z,189.70
2023-05-25T11:29:16.151Z,189.58
2023-05-25T11:30:16.026Z,189.60
2023-05-25T11:31:16.138Z,189.60
2023-05-25T11:32:16.139Z,189.88
2023-05-25T11:33:16.109Z,189.72
2023-05-25T11:34:16.099Z,189.28
2023-05-25T11:35:16.183Z,189.31
2023-05-25T11:36:16.104Z,188.50
2023-05-25T11:37:16.131Z,187.45
2023-05-25T11:38:16.185Z,187.34
2023-05-25T11:39:22.452Z,188.91
2023-05-25T11:40:17.163Z,188.94
2023-05-25T11:41:16.151Z,188.98
2023-05-25T11:42:16.166Z,188.72
2023-05-25T11:43:16.172Z,186.92
2023-05-25T11:44:16.174Z,187.40
2023-05-25T11:45:16.207Z,186.65
2023-05-25T11:46:16.236Z,186.32
2023-05-25T11:47:16.218Z,186.32
2023-05-25T11:48:16.315Z,186.26
2023-05-25T11:49:16.246Z,186.18
2023-05-25T11:50:16.254Z,186.62
2023-05-25T11:51:16.273Z,186.21
2023-05-25T11:52:16.295Z,185.50
2023-05-25T11:53:16.292Z,185.77
2023-05-25T11:54:16.309Z,184.40
2023-05-25T11:55:16.309Z,182.15
2023-05-25T11:56:30.731Z,182.49
2023-05-25T11:57:17.357Z,182.57
2023-05-25T11:58:16.339Z,182.67
2023-05-25T11:59:16.369Z,183.03
2023-05-25T12:00:16.366Z,183.23
2023-05-25T12:01:16.420Z,182.86
2023-05-25T12:02:16.406Z,181.78
2023-05-25T12:03:16.505Z,182.60
2023-05-25T12:04:16.526Z,181.33
2023-05-25T12:05:16.468Z,182.93
2023-05-25T12:06:16.448Z,181.11
2023-05-25T12:07:16.455Z,181.06
2023-05-25T12:08:16.452Z,180.45
2023-05-25T12:09:16.462Z,180.08
2023-05-25T12:10:16.495Z,180.09
2023-05-25T12:11:16.473Z,178.84
2023-05-25T12:12:16.473Z,178.78
2023-05-25T12:13:16.480Z,177.70
2023-05-25T12:14:16.496Z,176.41
2023-05-25T12:15:19.011Z,177.51
2023-05-25T12:16:16.545Z,177.71
2023-05-25T12:17:16.588Z,176.73
2023-05-25T12:18:16.514Z,175.59
2023-05-25T12:19:16.563Z,174.11
2023-05-25T12:20:16.644Z,173.39
2023-05-25T12:21:16.554Z,171.25
2023-05-25T12:22:16.586Z,170.51
2023-05-25T12:23:16.579Z,169.21
2023-05-25T12:24:16.578Z,168.55
2023-05-25T12:25:16.573Z,168.63
2023-05-25T12:26:16.619Z,168.66
2023-05-25T12:27:16.615Z,168.50
2023-05-25T12:28:16.615Z,166.46
2023-05-25T12:29:16.628Z,167.28
2023-05-25T12:30:16.614Z,168.01
2023-05-25T12:31:16.650Z,165.88
2023-05-25T12:32:16.652Z,165.43
2023-05-25T12:33:16.718Z,166.31
2023-05-25T12:34:16.688Z,167.75
2023-05-25T12:35:16.687Z,166.87
2023-05-25T12:36:16.676Z,166.36
2023-05-25T12:37:16.676Z,166.14
2023-05-25T12:38:16.696Z,164.24
2023-05-25T12:39:16.713Z,162.28
2023-05-25T12:40:16.712Z,160.94
2023-05-25T12:41:16.705Z,158.88
2023-05-25T12:42:16.752Z,159.43
2023-05-25T12:43:16.807Z,157.31
2023-05-25T12:44:16.740Z,155.15
2023-05-25T12:45:16.737Z,153.56
2023-05-25T12:46:16.772Z,153.74